createdAt,value
2022-08-07T00:02:36.164Z,100.00
2022-08-07T00:04:11.433Z,100.00
2022-08-07T00:06:52.185Z,100.00
2022-08-07T00:09:22.451Z,100.00
2022-08-07T00:11:55.674Z,100.00
2022-08-07T00:14:31.326Z,100.00
2022-08-07T00:16:59.904Z,100.00
2022-08-07T00:20:00.398Z,100.00
2022-08-07T00:22:34.570Z,100.00
2022-08-07T00:25:03.896Z,100.00
2022-08-07T00:27:51.890Z,100.00
2022-08-07T00:30:21.789Z,100.00
2022-08-07T00:32:55.712Z,100.00
2022-08-07T00:35:23.284Z,100.00
2022-08-07T00:37:51.661Z,100.00
2022-08-07T00:40:39.982Z,100.00
2022-08-07T00:43:09.930Z,100.00
2022-08-07T00:45:39.501Z,100.00
2022-08-07T00:48:11.010Z,100.00
2022-08-07T00:50:46.168Z,100.00
2022-08-07T00:53:20.164Z,100.00
2022-08-07T00:56:02.158Z,100.00
2022-08-07T00:58:30.978Z,100.00
2022-08-07T01:01:00.358Z,100.00
2022-08-07T01:03:56.660Z,100.00
2022-08-07T01:06:17.289Z,100.00
2022-08-07T01:08:53.079Z,100.00
2022-08-07T01:12:10.025Z,100.00
2022-08-07T01:14:09.661Z,100.00
2022-08-07T01:16:39.807Z,100.00
2022-08-07T01:19:18.878Z,100.00
2022-08-07T01:21:50.005Z,100.00
2022-08-07T01:24:22.244Z,100.00
2022-08-07T01:26:52.775Z,100.00
2022-08-07T01:29:23.390Z,100.00
2022-08-07T01:31:59.377Z,100.00
2022-08-07T01:34:30.721Z,100.00
2022-08-07T01:37:00.182Z,100.00
2022-08-07T01:39:40.437Z,100.00
2022-08-07T01:42:38.269Z,100.00
2022-08-07T01:45:03.605Z,100.00
2022-08-07T01:48:29.616Z,100.00
2022-08-07T01:50:28.537Z,100.00
2022-08-07T01:53:01.175Z,100.00
2022-08-07T01:55:40.202Z,100.00
2022-08-07T01:58:29.064Z,100.00
2022-08-07T02:01:09.398Z,100.00
2022-08-07T02:03:48.729Z,100.00
2022-08-07T02:06:30.794Z,100.00
2022-08-07T02:09:04.489Z,100.00
2022-08-07T02:12:03.572Z,100.00
2022-08-07T02:14:36.620Z,100.00
2022-08-07T02:17:11.175Z,100.00
2022-08-07T02:20:05.005Z,100.00
2022-08-07T02:22:31.726Z,100.00
2022-08-07T02:25:01.604Z,100.00
2022-08-07T02:27:35.936Z,100.00
2022-08-07T02:30:09.802Z,100.00
2022-08-07T02:32:39.462Z,100.00
2022-08-07T02:36:29.914Z,100.00
2022-08-07T02:38:15.776Z,100.00
2022-08-07T02:40:46.603Z,100.00
2022-08-07T02:43:16.398Z,100.00
2022-08-07T02:46:00.694Z,100.00
2022-08-07T02:48:29.609Z,100.00
2022-08-07T02:50:58.316Z,100.00
2022-08-07T02:53:38.638Z,100.00
2022-08-07T02:56:17.401Z,100.00
2022-08-07T02:58:51.081Z,100.00
2022-08-07T03:01:35.739Z,100.00
2022-08-07T03:04:07.202Z,100.00
2022-08-07T03:06:37.612Z,100.00
2022-08-07T03:09:07.875Z,100.00
2022-08-07T03:11:52.476Z,100.00
2022-08-07T03:14:25.765Z,100.00
2022-08-07T03:16:53.366Z,100.00
2022-08-07T03:19:21.572Z,100.00
2022-08-07T03:21:51.118Z,100.00
2022-08-07T03:24:26.878Z,100.00
2022-08-07T03:27:01.059Z,100.00
2022-08-07T03:29:33.888Z,100.00
2022-08-07T03:32:13.071Z,100.00
2022-08-07T03:34:47.472Z,100.00
2022-08-07T03:37:37.376Z,100.00
2022-08-07T03:40:15.856Z,100.00
2022-08-07T03:42:46.218Z,100.00
2022-08-07T03:45:29.457Z,100.00
2022-08-07T03:47:58.980Z,100.00
2022-08-07T03:50:28.630Z,100.00
2022-08-07T03:52:57.984Z,100.00
2022-08-07T03:55:53.406Z,100.00
2022-08-07T03:59:05.243Z,100.00
2022-08-07T04:01:02.655Z,100.00
2022-08-07T04:03:49.537Z,100.00
2022-08-07T04:06:38.024Z,100.00
2022-08-07T04:09:05.599Z,100.00
2022-08-07T04:12:26.933Z,100.00
2022-08-07T04:14:37.690Z,100.00
2022-08-07T04:17:19.855Z,100.00
2022-08-07T04:19:52.187Z,100.00
2022-08-07T04:22:27.384Z,100.00
2022-08-07T04:24:58.187Z,100.00
2022-08-07T04:27:26.552Z,100.00
2022-08-07T04:30:01.055Z,100.00
2022-08-07T04:32:34.377Z,100.00
2022-08-07T04:35:03.896Z,100.00
2022-08-07T04:38:00.924Z,100.00
2022-08-07T04:40:20.738Z,100.00
2022-08-07T04:42:52.369Z,100.00
2022-08-07T04:45:57.447Z,100.00
2022-08-07T04:48:13.863Z,100.00
2022-08-07T04:50:54.129Z,100.00
2022-08-07T04:53:39.966Z,100.00
2022-08-07T04:58:11.699Z,100.00
2022-08-07T05:00:12.066Z,100.00
2022-08-07T05:02:16.617Z,100.00
2022-08-07T05:04:50.321Z,100.00
2022-08-07T05:07:30.386Z,100.00
2022-08-07T05:10:01.779Z,100.00
2022-08-07T05:12:37.440Z,100.00
2022-08-07T05:15:25.332Z,100.00
2022-08-07T05:17:58.005Z,100.00
2022-08-07T05:20:33.405Z,100.00
2022-08-07T05:23:15.318Z,100.00
2022-08-07T05:26:11.524Z,100.00
2022-08-07T05:28:34.560Z,100.00
2022-08-07T05:31:03.697Z,100.00
2022-08-07T05:33:36.992Z,100.00
2022-08-07T05:36:07.961Z,100.00
2022-08-07T05:38:58.104Z,100.00
2022-08-07T05:42:02.583Z,100.00
2022-08-07T05:44:29.200Z,100.00
2022-08-07T05:46:58.106Z,100.00
2022-08-07T05:49:40.436Z,100.00
2022-08-07T05:52:11.777Z,100.00
2022-08-07T05:54:53.100Z,100.00
2022-08-07T05:57:26.561Z,100.00
2022-08-07T05:59:58.715Z,100.00
2022-08-07T06:02:30.758Z,100.00
2022-08-07T06:05:04.496Z,100.00
2022-08-07T06:08:14.775Z,100.00
2022-08-07T06:10:21.167Z,100.00
2022-08-07T06:12:50.125Z,100.00
2022-08-07T06:15:20.010Z,100.00
2022-08-07T06:17:53.364Z,100.00
2022-08-07T06:20:25.648Z,100.00
2022-08-07T06:23:45.781Z,100.00
2022-08-07T06:26:00.072Z,100.00
2022-08-07T06:28:28.665Z,100.00
2022-08-07T06:30:58.204Z,100.00
2022-08-07T06:33:26.617Z,100.00
2022-08-07T06:36:13.026Z,100.00
2022-08-07T06:38:59.214Z,100.00
2022-08-07T06:42:01.529Z,100.00
2022-08-07T06:44:22.392Z,100.00
2022-08-07T06:46:53.716Z,100.00
2022-08-07T06:49:51.136Z,100.00
2022-08-07T06:52:31.718Z,100.00
2022-08-07T06:55:31.345Z,100.00
2022-08-07T06:57:59.880Z,100.00
2022-08-07T07:00:28.641Z,100.00
2022-08-07T07:02:58.261Z,100.00
2022-08-07T07:06:03.685Z,100.00
2022-08-07T07:08:18.921Z,100.00
2022-08-07T07:10:57.073Z,100.00
2022-08-07T07:13:56.072Z,100.00
2022-08-07T07:16:27.592Z,100.00
2022-08-07T07:19:11.215Z,97.30
2022-08-07T07:22:04.900Z,89.87
2022-08-07T07:24:56.636Z,80.64
2022-08-07T07:27:35.838Z,68.39
2022-08-07T07:30:26.536Z,68.69
2022-08-07T07:33:07.642Z,70.25
2022-08-07T07:35:54.770Z,68.88
2022-08-07T07:38:25.884Z,70.51
2022-08-07T07:41:02.152Z,66.15
2022-08-07T07:43:47.695Z,74.47
2022-08-07T07:46:37.965Z,80.94
2022-08-07T07:50:15.889Z,88.78
2022-08-07T07:51:57.847Z,91.62
2022-08-07T07:54:28.359Z,89.39
2022-08-07T07:56:58.911Z,88.73
2022-08-07T07:59:52.210Z,85.40
2022-08-07T08:02:34.140Z,84.81
2022-08-07T08:05:05.452Z,88.92
2022-08-07T08:07:59.909Z,89.41
2022-08-07T08:10:35.683Z,77.12
2022-08-07T08:13:10.600Z,72.35
2022-08-07T08:15:58.905Z,72.03
2022-08-07T08:18:29.484Z,70.47
2022-08-07T08:20:59.625Z,69.71
2022-08-07T08:23:47.381Z,69.78
2022-08-07T08:26:34.651Z,62.15
2022-08-07T08:29:05.784Z,56.96
2022-08-07T08:32:17.092Z,56.42
2022-08-07T08:34:29.415Z,55.55
2022-08-07T08:36:58.808Z,55.91
2022-08-07T08:39:39.727Z,53.07
2022-08-07T08:42:25.767Z,52.20
2022-08-07T08:45:04.087Z,52.91
2022-08-07T08:47:52.199Z,53.82
2022-08-07T08:50:28.259Z,50.77
2022-08-07T08:53:07.203Z,50.17
2022-08-07T08:55:55.379Z,49.91
2022-08-07T08:58:34.948Z,50.18
2022-08-07T09:01:15.375Z,51.86
2022-08-07T09:03:55.453Z,50.88
2022-08-07T09:06:36.517Z,52.69
2022-08-07T09:09:20.815Z,53.57
2022-08-07T09:12:02.771Z,56.86
2022-08-07T09:16:20.344Z,54.15
2022-08-07T09:18:20.588Z,55.51
2022-08-07T09:21:01.915Z,53.31
2022-08-07T09:24:32.048Z,54.77
2022-08-07T09:26:32.171Z,55.83
2022-08-07T09:30:01.042Z,55.32
2022-08-07T09:31:57.799Z,52.99
2022-08-07T09:34:33.580Z,50.25
2022-08-07T09:37:07.100Z,46.74
2022-08-07T09:39:54.568Z,47.10
2022-08-07T09:42:38.765Z,44.29
2022-08-07T09:46:29.070Z,45.73
2022-08-07T09:48:14.614Z,45.55
2022-08-07T09:51:03.956Z,44.72
2022-08-07T09:53:55.096Z,45.37
2022-08-07T09:56:46.933Z,45.64
2022-08-07T09:59:44.666Z,46.83
2022-08-07T10:02:55.145Z,47.67
2022-08-07T10:05:59.164Z,46.96
2022-08-07T10:08:45.188Z,46.19
2022-08-07T10:12:01.359Z,44.27
2022-08-07T10:14:31.723Z,44.53
2022-08-07T10:17:16.517Z,43.97
2022-08-07T10:20:13.063Z,43.24
2022-08-07T10:22:58.415Z,43.13
2022-08-07T10:25:45.736Z,43.42
2022-08-07T10:28:35.903Z,44.21
2022-08-07T10:31:38.657Z,44.82
2022-08-07T10:34:32.188Z,45.26
2022-08-07T10:37:12.775Z,44.59
2022-08-07T10:40:03.216Z,43.91
2022-08-07T10:42:41.179Z,41.78
2022-08-07T10:45:45.117Z,42.58
2022-08-07T10:48:34.983Z,42.98
2022-08-07T10:51:16.879Z,42.62
2022-08-07T10:54:07.465Z,41.87
2022-08-07T10:56:44.923Z,41.38
2022-08-07T10:59:44.153Z,42.11
2022-08-07T11:02:33.627Z,40.64
2022-08-07T11:05:14.808Z,40.24
2022-08-07T11:08:00.478Z,39.36
2022-08-07T11:10:37.381Z,39.70
2022-08-07T11:14:41.830Z,39.52
2022-08-07T11:16:07.093Z,40.14
2022-08-07T11:18:37.919Z,40.74
2022-08-07T11:21:14.210Z,39.86
2022-08-07T11:23:52.101Z,40.97
2022-08-07T11:26:29.127Z,40.71
2022-08-07T11:29:05.726Z,39.85
2022-08-07T11:31:49.950Z,39.51
2022-08-07T11:34:25.602Z,40.68
2022-08-07T11:37:00.760Z,39.93
2022-08-07T11:40:00.991Z,39.11
2022-08-07T11:42:40.118Z,38.04
2022-08-07T11:45:23.781Z,38.81
2022-08-07T11:48:29.866Z,39.11
2022-08-07T11:51:41.453Z,39.54
2022-08-07T11:54:17.442Z,39.31
2022-08-07T11:57:14.137Z,38.73
2022-08-07T12:00:10.988Z,38.27
2022-08-07T12:03:41.521Z,39.94
2022-08-07T12:06:37.229Z,39.53
2022-08-07T12:09:16.501Z,41.79
2022-08-07T12:12:09.958Z,39.83
2022-08-07T12:14:55.450Z,39.25
2022-08-07T12:17:35.290Z,39.94
2022-08-07T12:20:18.497Z,39.91
2022-08-07T12:23:15.066Z,39.09
2022-08-07T12:26:03.083Z,37.15
2022-08-07T12:28:49.787Z,38.55
2022-08-07T12:31:27.764Z,39.80
2022-08-07T12:34:17.140Z,38.28
2022-08-07T12:36:49.331Z,38.91
2022-08-07T12:39:44.302Z,38.43
2022-08-07T12:42:12.102Z,37.54
2022-08-07T12:44:45.076Z,38.40
2022-08-07T12:47:26.790Z,39.10
2022-08-07T12:50:05.006Z,39.30
2022-08-07T12:52:54.954Z,39.27
2022-08-07T12:55:41.053Z,38.75
2022-08-07T12:58:13.389Z,39.30
2022-08-07T13:00:50.871Z,38.05
2022-08-07T13:04:02.068Z,37.83
2022-08-07T13:07:00.824Z,38.22
2022-08-07T13:10:20.426Z,37.91
2022-08-07T13:13:02.114Z,37.84
2022-08-07T13:15:38.208Z,37.24
2022-08-07T13:18:26.582Z,36.76
2022-08-07T13:21:00.766Z,37.96
2022-08-07T13:24:00.607Z,38.85
2022-08-07T13:26:35.039Z,38.42
2022-08-07T13:29:12.452Z,37.63
2022-08-07T13:31:57.879Z,37.75
2022-08-07T13:34:38.087Z,38.33
2022-08-07T13:37:20.065Z,37.60
2022-08-07T13:40:35.588Z,37.57
2022-08-07T13:42:45.650Z,38.16
2022-08-07T13:46:06.665Z,37.72
2022-08-07T13:48:08.825Z,38.02
2022-08-07T13:51:00.009Z,37.48
2022-08-07T13:53:55.288Z,37.89
2022-08-07T13:56:35.942Z,38.01
2022-08-07T13:59:12.612Z,37.92
2022-08-07T14:01:51.495Z,38.06
2022-08-07T14:04:35.691Z,37.78
2022-08-07T14:07:09.273Z,38.36
2022-08-07T14:10:01.534Z,37.16
2022-08-07T14:12:36.287Z,37.65
2022-08-07T14:15:19.160Z,38.50
2022-08-07T14:18:24.450Z,37.77
2022-08-07T14:20:49.164Z,37.69
2022-08-07T14:23:58.921Z,37.60
2022-08-07T14:26:23.654Z,37.80
2022-08-07T14:29:10.669Z,36.88
2022-08-07T14:31:56.160Z,36.99
2022-08-07T14:34:29.878Z,37.77
2022-08-07T14:37:01.714Z,37.22
2022-08-07T14:40:16.375Z,37.82
2022-08-07T14:43:55.186Z,37.18
2022-08-07T14:48:20.935Z,36.64
2022-08-07T14:50:53.265Z,37.75
2022-08-07T14:54:05.600Z,36.79
2022-08-07T14:56:14.061Z,37.08
2022-08-07T14:58:44.784Z,37.57
2022-08-07T15:01:22.475Z,36.75
2022-08-07T15:03:52.487Z,36.58
2022-08-07T15:06:26.516Z,36.48
2022-08-07T15:08:55.784Z,36.49
2022-08-07T15:14:21.731Z,36.61
2022-08-07T15:16:55.596Z,36.80
2022-08-07T15:22:23.175Z,37.72
2022-08-07T15:25:16.942Z,36.85
2022-08-07T15:28:30.697Z,36.69
2022-08-07T15:33:33.634Z,36.75
2022-08-07T15:36:07.485Z,36.77
2022-08-07T15:38:59.158Z,36.15
2022-08-07T15:42:45.203Z,36.26
2022-08-07T15:44:23.620Z,36.21
2022-08-07T15:46:58.256Z,36.47
2022-08-07T15:52:30.215Z,36.23
2022-08-07T15:55:02.739Z,36.70
2022-08-07T15:57:47.627Z,37.72
2022-08-07T16:00:31.002Z,36.75
2022-08-07T16:03:04.566Z,36.80
2022-08-07T16:05:33.007Z,36.78
2022-08-07T16:08:32.553Z,36.20
2022-08-07T16:10:58.558Z,35.77
2022-08-07T16:14:03.303Z,36.14
2022-08-07T16:16:43.005Z,36.13
2022-08-07T16:19:42.898Z,35.71
2022-08-07T16:22:38.732Z,36.17
2022-08-07T16:25:55.555Z,38.31
2022-08-07T16:30:07.141Z,36.05
2022-08-07T16:31:51.477Z,35.89
2022-08-07T16:34:37.767Z,36.03
2022-08-07T16:38:05.267Z,37.10
2022-08-07T16:40:35.385Z,36.59
2022-08-07T16:43:12.903Z,36.26
2022-08-07T16:46:11.043Z,36.43
2022-08-07T16:50:29.278Z,36.53
2022-08-07T16:52:51.964Z,36.99
2022-08-07T16:55:15.002Z,37.17
2022-08-07T16:58:01.974Z,37.25
2022-08-07T17:00:40.871Z,36.71
2022-08-07T17:03:18.452Z,37.37
2022-08-07T17:06:18.856Z,38.69
2022-08-07T17:09:10.797Z,38.85
2022-08-07T17:12:04.977Z,38.39
2022-08-07T17:14:38.244Z,38.47
2022-08-07T17:17:16.127Z,38.97
2022-08-07T17:20:02.620Z,38.40
2022-08-07T17:22:57.127Z,38.71
2022-08-07T17:25:47.729Z,38.90
2022-08-07T17:28:22.160Z,40.08
2022-08-07T17:30:59.407Z,39.56
2022-08-07T17:34:10.022Z,39.69
2022-08-07T17:36:26.166Z,39.85
2022-08-07T17:39:10.500Z,39.72
2022-08-07T17:42:02.531Z,39.27
2022-08-07T17:44:42.691Z,39.98
2022-08-07T17:47:38.723Z,40.30
2022-08-07T17:50:16.747Z,40.40
2022-08-07T17:52:55.332Z,41.59
2022-08-07T17:56:00.112Z,41.06
2022-08-07T17:58:31.338Z,41.78
2022-08-07T18:01:03.635Z,42.93
2022-08-07T18:04:06.910Z,42.78
2022-08-07T18:06:43.071Z,42.57
2022-08-07T18:09:17.872Z,43.02
2022-08-07T18:12:19.971Z,42.74
2022-08-07T18:15:02.719Z,42.95
2022-08-07T18:18:47.450Z,43.05
2022-08-07T18:21:03.253Z,44.57
2022-08-07T18:23:42.984Z,46.60
2022-08-07T18:26:22.453Z,44.42
2022-08-07T18:30:06.902Z,45.23
2022-08-07T18:32:08.874Z,46.36
2022-08-07T18:35:00.859Z,45.78
2022-08-07T18:38:55.284Z,47.08
2022-08-07T18:40:53.438Z,46.52
2022-08-07T18:43:48.861Z,48.70
2022-08-07T18:46:27.379Z,49.01
2022-08-07T18:50:30.759Z,51.86
2022-08-07T18:52:33.817Z,59.45
2022-08-07T18:54:52.081Z,59.42
2022-08-07T18:57:38.606Z,60.45
2022-08-07T19:00:32.890Z,60.71
2022-08-07T19:03:11.944Z,58.97
2022-08-07T19:06:02.051Z,66.38
2022-08-07T19:08:46.631Z,67.75
2022-08-07T19:11:36.002Z,63.28
2022-08-07T19:14:17.399Z,70.61
2022-08-07T19:17:05.612Z,73.42
2022-08-07T19:19:49.017Z,76.56
2022-08-07T19:22:31.166Z,79.50
2022-08-07T19:24:58.970Z,82.33
2022-08-07T19:28:58.268Z,83.68
2022-08-07T19:31:00.402Z,85.12
2022-08-07T19:33:17.263Z,86.53
2022-08-07T19:35:54.664Z,88.97
2022-08-07T19:38:24.458Z,91.92
2022-08-07T19:41:00.422Z,93.81
2022-08-07T19:43:48.720Z,97.37
2022-08-07T19:46:32.014Z,98.65
2022-08-07T19:49:05.949Z,97.59
2022-08-07T19:51:52.680Z,94.29
2022-08-07T19:54:33.334Z,93.80
2022-08-07T19:58:01.301Z,100.00
2022-08-07T20:00:09.057Z,100.00
2022-08-07T20:02:53.272Z,100.00
2022-08-07T20:05:27.911Z,100.00
2022-08-07T20:07:59.098Z,100.00
2022-08-07T20:10:35.535Z,100.00
2022-08-07T20:13:23.685Z,100.00
2022-08-07T20:15:53.995Z,100.00
2022-08-07T20:18:32.261Z,100.00
2022-08-07T20:21:14.432Z,100.00
2022-08-07T20:23:54.081Z,100.00
2022-08-07T20:26:29.901Z,100.00
2022-08-07T20:29:10.160Z,100.00
2022-08-07T20:31:46.548Z,100.00
2022-08-07T20:34:34.422Z,100.00
2022-08-07T20:37:10.191Z,100.00
2022-08-07T20:40:02.677Z,100.00
2022-08-07T20:42:30.896Z,100.00
2022-08-07T21:02:01.507Z,100.00
2022-08-07T21:04:32.332Z,100.00
2022-08-07T21:07:03.909Z,100.00
2022-08-07T21:09:52.528Z,100.00
2022-08-07T21:12:30.934Z,100.00
2022-08-07T21:15:03.835Z,100.00
2022-08-07T21:18:03.121Z,100.00
2022-08-07T21:20:29.861Z,100.00
2022-08-07T21:23:08.304Z,100.00
2022-08-07T21:25:56.097Z,100.00
2022-08-07T21:28:50.048Z,100.00
2022-08-07T21:31:49.249Z,100.00
2022-08-07T21:34:21.794Z,100.00
2022-08-07T21:37:00.429Z,100.00
2022-08-07T21:39:47.714Z,100.00
2022-08-07T21:42:49.471Z,100.00
2022-08-07T21:46:04.707Z,100.00
2022-08-07T21:48:28.818Z,100.00
2022-08-07T21:51:20.401Z,100.00
2022-08-07T21:53:54.458Z,100.00
2022-08-07T21:56:36.148Z,100.00
2022-08-07T21:59:10.623Z,100.00
2022-08-07T22:01:50.335Z,100.00
2022-08-07T22:04:51.194Z,100.00
2022-08-07T22:07:31.708Z,100.00
2022-08-07T22:10:17.008Z,100.00
2022-08-07T22:12:49.606Z,100.00
2022-08-07T22:16:39.028Z,100.00
2022-08-07T22:18:12.195Z,100.00
2022-08-07T22:20:49.526Z,100.00
2022-08-07T22:23:25.290Z,100.00
2022-08-07T22:26:02.308Z,100.00
2022-08-07T22:28:41.932Z,100.00
2022-08-07T22:31:56.213Z,100.00
2022-08-07T22:34:16.553Z,100.00
2022-08-07T22:36:52.924Z,100.00
2022-08-07T22:39:30.027Z,100.00
2022-08-07T22:42:25.923Z,100.00
2022-08-07T22:44:59.135Z,100.00
2022-08-07T22:47:40.671Z,100.00
2022-08-07T22:50:29.076Z,100.00
2022-08-07T22:53:18.279Z,100.00
2022-08-07T22:56:09.062Z,100.00
2022-08-07T22:58:56.131Z,100.00
2022-08-07T23:01:50.707Z,100.00
2022-08-07T23:04:29.924Z,100.00
2022-08-07T23:07:18.456Z,100.00
2022-08-07T23:10:37.797Z,100.00
2022-08-07T23:13:11.790Z,100.00
2022-08-07T23:16:06.452Z,100.00
2022-08-07T23:18:44.959Z,100.00
2022-08-07T23:21:30.367Z,100.00
2022-08-07T23:24:27.975Z,100.00
2022-08-07T23:27:17.581Z,100.00
2022-08-07T23:30:37.642Z,100.00
2022-08-07T23:34:35.691Z,100.00
2022-08-07T23:36:29.121Z,100.00
2022-08-07T23:39:08.699Z,100.00
2022-08-07T23:42:04.637Z,100.00
2022-08-07T23:44:58.733Z,100.00
2022-08-07T23:47:51.600Z,100.00
2022-08-07T23:50:30.234Z,100.00
2022-08-07T23:53:11.785Z,100.00
2022-08-07T23:55:55.553Z,100.00
2022-08-07T23:58:27.464Z,100.00
